sensor_id;sensor_type;location;lat;lon;timestamp;P1;durP1;ratioP1;P2;durP2;ratioP2
70800;SDS011;59616;52.170;5.386;2023-06-01T00:02:25;12.43;;;3.97;;
70800;SDS011;59616;52.170;5.386;2023-06-01T00:04:52;10.88;;;4.30;;
70800;SDS011;59616;52.170;5.386;2023-06-01T00:07:20;14.05;;;4.75;;
70800;SDS011;59616;52.170;5.386;2023-06-01T00:09:47;15.63;;;4.57;;
70800;SDS011;59616;52.170;5.386;2023-06-01T00:12:14;11.13;;;3.80;;
70800;SDS011;59616;52.170;5.386;2023-06-01T00:14:42;16.23;;;4.55;;
70800;SDS011;59616;52.170;5.386;2023-06-01T00:17:09;13.13;;;4.15;;
70800;SDS011;59616;52.170;5.386;2023-06-01T00:19:36;14.93;;;3.90;;
70800;SDS011;59616;52.170;5.386;2023-06-01T00:22:07;15.75;;;4.00;;
70800;SDS011;59616;52.170;5.386;2023-06-01T00:24:34;11.57;;;4.00;;
70800;SDS011;59616;52.170;5.386;2023-06-01T00:27:01;12.18;;;4.13;;
70800;SDS011;59616;52.170;5.386;2023-06-01T00:29:29;15.65;;;4.68;;
70800;SDS011;59616;52.170;5.386;2023-06-01T00:31:56;14.40;;;4.15;;
70800;SDS011;59616;52.170;5.386;2023-06-01T00:34:24;12.88;;;4.00;;
70800;SDS011;59616;52.170;5.386;2023-06-01T00:36:51;10.80;;;3.85;;
70800;SDS011;59616;52.170;5.386;2023-06-01T00:39:19;13.35;;;4.43;;
70800;SDS011;59616;52.170;5.386;2023-06-01T00:41:46;16.50;;;4.55;;
70800;SDS011;59616;52.170;5.386;2023-06-01T00:44:14;13.43;;;4.13;;
70800;SDS011;59616;52.170;5.386;2023-06-01T00:46:41;14.32;;;4.35;;
70800;SDS011;59616;52.170;5.386;2023-06-01T00:49:08;14.52;;;4.32;;
70800;SDS011;59616;52.170;5.386;2023-06-01T00:51:36;12.68;;;4.13;;
70800;SDS011;59616;52.170;5.386;2023-06-01T00:54:03;14.90;;;4.40;;
70800;SDS011;59616;52.170;5.386;2023-06-01T00:56:30;12.65;;;4.00;;
70800;SDS011;59616;52.170;5.386;2023-06-01T00:58:59;12.13;;;4.03;;
70800;SDS011;59616;52.170;5.386;2023-06-01T01:01:27;13.73;;;4.25;;
70800;SDS011;59616;52.170;5.386;2023-06-01T01:03:54;11.55;;;3.90;;
70800;SDS011;59616;52.170;5.386;2023-06-01T01:06:27;11.10;;;3.85;;
70800;SDS011;59616;52.170;5.386;2023-06-01T01:11:26;13.93;;;4.78;;
70800;SDS011;59616;52.170;5.386;2023-06-01T01:14:01;13.13;;;4.00;;
70800;SDS011;59616;52.170;5.386;2023-06-01T01:17:18;12.27;;;3.80;;
70800;SDS011;59616;52.170;5.386;2023-06-01T01:24:56;11.75;;;3.63;;
70800;SDS011;59616;52.170;5.386;2023-06-01T01:30:20;14.45;;;4.30;;
70800;SDS011;59616;52.170;5.386;2023-06-01T01:32:49;12.07;;;3.58;;
70800;SDS011;59616;52.170;5.386;2023-06-01T01:35:17;11.98;;;4.05;;
70800;SDS011;59616;52.170;5.386;2023-06-01T01:37:51;14.88;;;3.78;;
70800;SDS011;59616;52.170;5.386;2023-06-01T01:40:18;9.20;;;3.50;;
70800;SDS011;59616;52.170;5.386;2023-06-01T01:42:46;14.55;;;4.13;;
70800;SDS011;59616;52.170;5.386;2023-06-01T01:45:14;15.85;;;3.80;;
70800;SDS011;59616;52.170;5.386;2023-06-01T01:50:26;11.55;;;4.22;;
70800;SDS011;59616;52.170;5.386;2023-06-01T01:52:54;12.75;;;4.47;;
70800;SDS011;59616;52.170;5.386;2023-06-01T01:55:23;12.35;;;3.97;;
70800;SDS011;59616;52.170;5.386;2023-06-01T01:57:50;13.57;;;3.65;;
70800;SDS011;59616;52.170;5.386;2023-06-01T02:00:18;14.18;;;4.30;;
70800;SDS011;59616;52.170;5.386;2023-06-01T02:02:46;14.43;;;5.15;;
70800;SDS011;59616;52.170;5.386;2023-06-01T02:05:15;13.93;;;3.85;;
70800;SDS011;59616;52.170;5.386;2023-06-01T02:07:42;11.98;;;4.10;;
70800;SDS011;59616;52.170;5.386;2023-06-01T02:10:09;12.27;;;3.95;;
70800;SDS011;59616;52.170;5.386;2023-06-01T02:12:38;12.85;;;4.20;;
70800;SDS011;59616;52.170;5.386;2023-06-01T02:15:05;11.32;;;4.18;;
70800;SDS011;59616;52.170;5.386;2023-06-01T02:17:33;11.73;;;4.22;;
70800;SDS011;59616;52.170;5.386;2023-06-01T02:20:01;12.32;;;4.05;;
70800;SDS011;59616;52.170;5.386;2023-06-01T02:22:29;13.05;;;4.03;;
70800;SDS011;59616;52.170;5.386;2023-06-01T02:24:57;10.93;;;3.85;;
70800;SDS011;59616;52.170;5.386;2023-06-01T02:27:24;11.68;;;4.40;;
70800;SDS011;59616;52.170;5.386;2023-06-01T02:29:51;14.15;;;4.60;;
70800;SDS011;59616;52.170;5.386;2023-06-01T02:32:18;15.60;;;4.28;;
70800;SDS011;59616;52.170;5.386;2023-06-01T02:34:46;12.90;;;4.40;;
70800;SDS011;59616;52.170;5.386;2023-06-01T02:37:13;13.27;;;4.10;;
70800;SDS011;59616;52.170;5.386;2023-06-01T02:39:41;14.50;;;4.68;;
70800;SDS011;59616;52.170;5.386;2023-06-01T02:42:08;11.57;;;4.18;;
70800;SDS011;59616;52.170;5.386;2023-06-01T02:44:36;11.90;;;4.20;;
70800;SDS011;59616;52.170;5.386;2023-06-01T02:47:03;13.32;;;4.32;;
70800;SDS011;59616;52.170;5.386;2023-06-01T02:49:31;13.10;;;4.63;;
70800;SDS011;59616;52.170;5.386;2023-06-01T02:51:59;13.40;;;4.75;;
70800;SDS011;59616;52.170;5.386;2023-06-01T02:54:26;16.58;;;4.72;;
70800;SDS011;59616;52.170;5.386;2023-06-01T02:56:54;13.27;;;4.55;;
70800;SDS011;59616;52.170;5.386;2023-06-01T02:59:39;15.68;;;4.70;;
70800;SDS011;59616;52.170;5.386;2023-06-01T03:02:06;12.48;;;4.45;;
70800;SDS011;59616;52.170;5.386;2023-06-01T03:04:34;12.75;;;4.35;;
70800;SDS011;59616;52.170;5.386;2023-06-01T03:07:01;13.60;;;5.50;;
70800;SDS011;59616;52.170;5.386;2023-06-01T03:09:39;14.65;;;4.80;;
70800;SDS011;59616;52.170;5.386;2023-06-01T03:12:10;15.85;;;5.30;;
70800;SDS011;59616;52.170;5.386;2023-06-01T03:14:37;15.00;;;4.85;;
70800;SDS011;59616;52.170;5.386;2023-06-01T03:17:04;13.30;;;4.38;;
70800;SDS011;59616;52.170;5.386;2023-06-01T03:19:32;14.48;;;5.22;;
70800;SDS011;59616;52.170;5.386;2023-06-01T03:22:03;17.27;;;5.47;;
70800;SDS011;59616;52.170;5.386;2023-06-01T03:24:31;14.55;;;4.65;;
70800;SDS011;59616;52.170;5.386;2023-06-01T03:27:01;14.90;;;5.40;;
70800;SDS011;59616;52.170;5.386;2023-06-01T03:29:33;13.60;;;4.90;;
70800;SDS011;59616;52.170;5.386;2023-06-01T03:32:00;15.98;;;4.95;;
70800;SDS011;59616;52.170;5.386;2023-06-01T03:34:27;17.45;;;5.28;;
70800;SDS011;59616;52.170;5.386;2023-06-01T03:36:55;13.88;;;4.68;;
70800;SDS011;59616;52.170;5.386;2023-06-01T03:39:23;12.73;;;4.80;;
70800;SDS011;59616;52.170;5.386;2023-06-01T03:41:51;14.07;;;5.55;;
70800;SDS011;59616;52.170;5.386;2023-06-01T03:44:18;13.63;;;4.65;;
70800;SDS011;59616;52.170;5.386;2023-06-01T03:46:45;14.98;;;4.70;;
70800;SDS011;59616;52.170;5.386;2023-06-01T03:49:13;13.45;;;4.78;;
70800;SDS011;59616;52.170;5.386;2023-06-01T03:51:41;16.73;;;4.95;;
70800;SDS011;59616;52.170;5.386;2023-06-01T03:54:09;14.32;;;5.07;;
70800;SDS011;59616;52.170;5.386;2023-06-01T03:56:36;13.57;;;4.75;;
70800;SDS011;59616;52.170;5.386;2023-06-01T03:59:04;16.50;;;5.07;;
70800;SDS011;59616;52.170;5.386;2023-06-01T04:01:38;19.73;;;5.15;;
70800;SDS011;59616;52.170;5.386;2023-06-01T04:04:06;14.07;;;5.00;;
70800;SDS011;59616;52.170;5.386;2023-06-01T04:06:35;14.98;;;5.22;;
70800;SDS011;59616;52.170;5.386;2023-06-01T04:09:03;16.27;;;5.30;;
70800;SDS011;59616;52.170;5.386;2023-06-01T04:11:34;13.85;;;4.75;;
70800;SDS011;59616;52.170;5.386;2023-06-01T04:14:02;18.23;;;5.15;;
70800;SDS011;59616;52.170;5.386;2023-06-01T04:16:29;12.07;;;4.68;;
70800;SDS011;59616;52.170;5.386;2023-06-01T04:18:57;13.55;;;4.22;;
70800;SDS011;59616;52.170;5.386;2023-06-01T04:21:27;10.18;;;3.88;;
70800;SDS011;59616;52.170;5.386;2023-06-01T04:23:55;13.57;;;3.88;;
70800;SDS011;59616;52.170;5.386;2023-06-01T04:26:22;13.38;;;4.85;;
70800;SDS011;59616;52.170;5.386;2023-06-01T04:28:51;12.73;;;4.10;;
70800;SDS011;59616;52.170;5.386;2023-06-01T04:31:23;16.92;;;4.13;;
70800;SDS011;59616;52.170;5.386;2023-06-01T04:33:50;12.63;;;3.90;;
70800;SDS011;59616;52.170;5.386;2023-06-01T04:36:23;17.88;;;3.88;;
70800;SDS011;59616;52.170;5.386;2023-06-01T04:38:54;14.65;;;4.05;;
70800;SDS011;59616;52.170;5.386;2023-06-01T04:41:23;14.60;;;4.57;;
70800;SDS011;59616;52.170;5.386;2023-06-01T04:43:56;12.32;;;4.03;;
70800;SDS011;59616;52.170;5.386;2023-06-01T04:46:25;12.25;;;4.00;;
70800;SDS011;59616;52.170;5.386;2023-06-01T04:48:57;14.23;;;4.28;;
70800;SDS011;59616;52.170;5.386;2023-06-01T04:51:26;12.82;;;4.25;;
70800;SDS011;59616;52.170;5.386;2023-06-01T04:53:55;15.68;;;4.28;;
70800;SDS011;59616;52.170;5.386;2023-06-01T04:56:23;15.35;;;3.92;;
70800;SDS011;59616;52.170;5.386;2023-06-01T04:58:53;12.57;;;4.13;;
70800;SDS011;59616;52.170;5.386;2023-06-01T05:01:22;13.27;;;4.40;;
70800;SDS011;59616;52.170;5.386;2023-06-01T05:03:52;16.58;;;4.13;;
70800;SDS011;59616;52.170;5.386;2023-06-01T05:06:21;13.07;;;4.50;;
70800;SDS011;59616;52.170;5.386;2023-06-01T05:08:51;12.95;;;4.70;;
70800;SDS011;59616;52.170;5.386;2023-06-01T05:11:18;15.13;;;4.55;;
70800;SDS011;59616;52.170;5.386;2023-06-01T05:13:45;12.68;;;4.20;;
70800;SDS011;59616;52.170;5.386;2023-06-01T05:16:12;13.55;;;5.25;;
70800;SDS011;59616;52.170;5.386;2023-06-01T05:18:40;17.35;;;4.32;;
70800;SDS011;59616;52.170;5.386;2023-06-01T05:21:08;15.13;;;4.38;;
70800;SDS011;59616;52.170;5.386;2023-06-01T05:23:35;14.20;;;4.97;;
70800;SDS011;59616;52.170;5.386;2023-06-01T05:26:02;13.07;;;4.80;;
70800;SDS011;59616;52.170;5.386;2023-06-01T05:28:32;15.70;;;5.45;;
70800;SDS011;59616;52.170;5.386;2023-06-01T05:31:03;14.13;;;4.70;;
70800;SDS011;59616;52.170;5.386;2023-06-01T05:33:35;15.18;;;5.25;;
70800;SDS011;59616;52.170;5.386;2023-06-01T05:36:03;14.30;;;5.15;;
70800;SDS011;59616;52.170;5.386;2023-06-01T05:38:30;14.25;;;4.57;;
70800;SDS011;59616;52.170;5.386;2023-06-01T05:40:58;14.70;;;4.55;;
70800;SDS011;59616;52.170;5.386;2023-06-01T05:43:25;13.98;;;4.70;;
70800;SDS011;59616;52.170;5.386;2023-06-01T05:45:53;16.88;;;4.20;;
70800;SDS011;59616;52.170;5.386;2023-06-01T05:48:20;11.98;;;4.25;;
70800;SDS011;59616;52.170;5.386;2023-06-01T05:50:53;14.07;;;4.63;;
70800;SDS011;59616;52.170;5.386;2023-06-01T05:53:20;12.70;;;3.97;;
70800;SDS011;59616;52.170;5.386;2023-06-01T05:55:51;15.50;;;4.72;;
70800;SDS011;59616;52.170;5.386;2023-06-01T05:58:19;18.20;;;4.57;;
70800;SDS011;59616;52.170;5.386;2023-06-01T06:00:46;15.55;;;4.28;;
70800;SDS011;59616;52.170;5.386;2023-06-01T06:03:14;12.32;;;4.15;;
70800;SDS011;59616;52.170;5.386;2023-06-01T06:05:42;14.48;;;4.32;;
70800;SDS011;59616;52.170;5.386;2023-06-01T06:08:09;14.20;;;4.32;;
70800;SDS011;59616;52.170;5.386;2023-06-01T06:10:36;13.32;;;4.15;;
70800;SDS011;59616;52.170;5.386;2023-06-01T06:13:04;15.40;;;4.28;;
70800;SDS011;59616;52.170;5.386;2023-06-01T06:15:31;14.85;;;4.50;;
70800;SDS011;59616;52.170;5.386;2023-06-01T06:17:58;18.27;;;4.35;;
70800;SDS011;59616;52.170;5.386;2023-06-01T06:20:25;14.60;;;4.75;;
70800;SDS011;59616;52.170;5.386;2023-06-01T06:22:53;13.90;;;4.65;;
70800;SDS011;59616;52.170;5.386;2023-06-01T06:25:20;14.48;;;4.35;;
70800;SDS011;59616;52.170;5.386;2023-06-01T06:27:47;13.60;;;4.82;;
70800;SDS011;59616;52.170;5.386;2023-06-01T06:30:14;13.60;;;4.38;;
70800;SDS011;59616;52.170;5.386;2023-06-01T06:32:41;14.50;;;4.45;;
70800;SDS011;59616;52.170;5.386;2023-06-01T06:35:09;15.10;;;4.32;;
70800;SDS011;59616;52.170;5.386;2023-06-01T06:37:40;14.25;;;4.25;;
70800;SDS011;59616;52.170;5.386;2023-06-01T06:40:08;14.88;;;4.68;;
70800;SDS011;59616;52.170;5.386;2023-06-01T06:42:35;15.88;;;4.20;;
70800;SDS011;59616;52.170;5.386;2023-06-01T06:45:02;14.93;;;5.10;;
70800;SDS011;59616;52.170;5.386;2023-06-01T06:47:31;13.13;;;4.45;;
70800;SDS011;59616;52.170;5.386;2023-06-01T06:49:58;13.18;;;4.38;;
70800;SDS011;59616;52.170;5.386;2023-06-01T06:52:26;12.18;;;4.75;;
70800;SDS011;59616;52.170;5.386;2023-06-01T06:54:53;15.45;;;4.95;;
70800;SDS011;59616;52.170;5.386;2023-06-01T06:57:20;14.82;;;4.53;;
70800;SDS011;59616;52.170;5.386;2023-06-01T06:59:48;16.27;;;4.78;;
70800;SDS011;59616;52.170;5.386;2023-06-01T07:02:15;13.32;;;4.57;;
70800;SDS011;59616;52.170;5.386;2023-06-01T07:04:42;12.60;;;4.43;;
70800;SDS011;59616;52.170;5.386;2023-06-01T07:07:09;14.80;;;4.28;;
70800;SDS011;59616;52.170;5.386;2023-06-01T07:09:37;14.30;;;4.50;;
70800;SDS011;59616;52.170;5.386;2023-06-01T07:12:04;13.15;;;4.80;;
70800;SDS011;59616;52.170;5.386;2023-06-01T07:14:32;12.85;;;4.65;;
70800;SDS011;59616;52.170;5.386;2023-06-01T07:16:59;13.82;;;4.10;;
70800;SDS011;59616;52.170;5.386;2023-06-01T07:19:27;16.02;;;4.75;;
70800;SDS011;59616;52.170;5.386;2023-06-01T07:21:59;12.52;;;4.30;;
70800;SDS011;59616;52.170;5.386;2023-06-01T07:24:27;13.75;;;4.00;;
70800;SDS011;59616;52.170;5.386;2023-06-01T07:26:54;13.98;;;4.15;;
70800;SDS011;59616;52.170;5.386;2023-06-01T07:29:23;12.65;;;3.90;;
70800;SDS011;59616;52.170;5.386;2023-06-01T07:31:51;16.48;;;4.32;;
70800;SDS011;59616;52.170;5.386;2023-06-01T07:34:18;11.60;;;4.65;;
70800;SDS011;59616;52.170;5.386;2023-06-01T07:36:46;12.45;;;4.43;;
70800;SDS011;59616;52.170;5.386;2023-06-01T07:39:15;14.15;;;4.05;;
70800;SDS011;59616;52.170;5.386;2023-06-01T07:41:45;12.23;;;4.35;;
70800;SDS011;59616;52.170;5.386;2023-06-01T07:44:12;14.40;;;4.00;;
70800;SDS011;59616;52.170;5.386;2023-06-01T07:46:44;13.13;;;4.10;;
70800;SDS011;59616;52.170;5.386;2023-06-01T07:49:14;13.77;;;4.07;;
70800;SDS011;59616;52.170;5.386;2023-06-01T07:51:42;10.95;;;4.00;;
70800;SDS011;59616;52.170;5.386;2023-06-01T07:54:10;10.77;;;3.97;;
70800;SDS011;59616;52.170;5.386;2023-06-01T07:56:37;11.30;;;3.72;;
70800;SDS011;59616;52.170;5.386;2023-06-01T07:59:04;11.63;;;3.80;;
70800;SDS011;59616;52.170;5.386;2023-06-01T08:01:32;14.00;;;4.10;;
70800;SDS011;59616;52.170;5.386;2023-06-01T08:03:59;10.05;;;3.53;;
70800;SDS011;59616;52.170;5.386;2023-06-01T08:06:28;12.98;;;4.03;;
70800;SDS011;59616;52.170;5.386;2023-06-01T08:09:02;10.82;;;3.70;;
70800;SDS011;59616;52.170;5.386;2023-06-01T08:11:30;11.15;;;4.07;;
70800;SDS011;59616;52.170;5.386;2023-06-01T08:13:57;12.15;;;3.75;;
70800;SDS011;59616;52.170;5.386;2023-06-01T08:16:26;10.10;;;3.55;;
70800;SDS011;59616;52.170;5.386;2023-06-01T08:18:53;10.68;;;3.92;;
70800;SDS011;59616;52.170;5.386;2023-06-01T08:21:24;11.05;;;3.70;;
70800;SDS011;59616;52.170;5.386;2023-06-01T08:23:54;10.32;;;3.28;;
70800;SDS011;59616;52.170;5.386;2023-06-01T08:26:22;11.02;;;3.70;;
70800;SDS011;59616;52.170;5.386;2023-06-01T08:28:49;10.38;;;4.13;;
70800;SDS011;59616;52.170;5.386;2023-06-01T08:31:20;12.68;;;3.72;;
70800;SDS011;59616;52.170;5.386;2023-06-01T08:33:48;12.52;;;3.72;;
70800;SDS011;59616;52.170;5.386;2023-06-01T08:36:17;10.45;;;3.92;;
70800;SDS011;59616;52.170;5.386;2023-06-01T08:38:45;11.00;;;3.83;;
70800;SDS011;59616;52.170;5.386;2023-06-01T08:43:39;10.77;;;3.70;;
70800;SDS011;59616;52.170;5.386;2023-06-01T08:46:07;13.07;;;4.15;;
70800;SDS011;59616;52.170;5.386;2023-06-01T08:48:34;13.68;;;4.55;;
70800;SDS011;59616;52.170;5.386;2023-06-01T08:51:02;14.15;;;3.95;;
70800;SDS011;59616;52.170;5.386;2023-06-01T08:53:29;9.48;;;3.63;;
70800;SDS011;59616;52.170;5.386;2023-06-01T08:55:57;10.20;;;3.80;;
70800;SDS011;59616;52.170;5.386;2023-06-01T08:58:25;12.75;;;4.00;;
70800;SDS011;59616;52.170;5.386;2023-06-01T09:00:52;11.23;;;3.97;;
70800;SDS011;59616;52.170;5.386;2023-06-01T09:03:20;9.65;;;3.47;;
70800;SDS011;59616;52.170;5.386;2023-06-01T09:05:47;12.20;;;3.50;;
70800;SDS011;59616;52.170;5.386;2023-06-01T09:08:15;14.30;;;3.60;;
70800;SDS011;59616;52.170;5.386;2023-06-01T09:10:42;13.80;;;3.70;;
70800;SDS011;59616;52.170;5.386;2023-06-01T09:13:09;12.43;;;3.55;;
70800;SDS011;59616;52.170;5.386;2023-06-01T09:15:49;11.98;;;3.45;;
70800;SDS011;59616;52.170;5.386;2023-06-01T09:18:17;9.65;;;3.72;;
70800;SDS011;59616;52.170;5.386;2023-06-01T09:20:44;9.45;;;3.13;;
70800;SDS011;59616;52.170;5.386;2023-06-01T09:23:11;11.70;;;3.47;;
70800;SDS011;59616;52.170;5.386;2023-06-01T09:25:50;10.02;;;2.97;;
70800;SDS011;59616;52.170;5.386;2023-06-01T09:28:30;10.10;;;2.85;;
70800;SDS011;59616;52.170;5.386;2023-06-01T09:30:57;8.25;;;3.20;;
70800;SDS011;59616;52.170;5.386;2023-06-01T09:33:24;9.90;;;2.88;;
70800;SDS011;59616;52.170;5.386;2023-06-01T09:35:52;9.55;;;2.90;;
70800;SDS011;59616;52.170;5.386;2023-06-01T09:38:20;10.10;;;3.33;;
70800;SDS011;59616;52.170;5.386;2023-06-01T09:43:24;11.80;;;3.40;;
70800;SDS011;59616;52.170;5.386;2023-06-01T09:46:03;11.50;;;3.58;;
70800;SDS011;59616;52.170;5.386;2023-06-01T09:48:31;12.07;;;3.67;;
70800;SDS011;59616;52.170;5.386;2023-06-01T09:50:58;13.95;;;4.18;;
70800;SDS011;59616;52.170;5.386;2023-06-01T09:53:28;9.73;;;3.40;;
70800;SDS011;59616;52.170;5.386;2023-06-01T09:55:56;9.88;;;3.67;;
70800;SDS011;59616;52.170;5.386;2023-06-01T09:58:24;11.88;;;3.58;;
70800;SDS011;59616;52.170;5.386;2023-06-01T10:00:52;12.45;;;3.63;;
70800;SDS011;59616;52.170;5.386;2023-06-01T10:03:20;10.07;;;3.40;;
70800;SDS011;59616;52.170;5.386;2023-06-01T10:05:48;12.38;;;3.63;;
70800;SDS011;59616;52.170;5.386;2023-06-01T10:08:16;9.52;;;3.45;;
70800;SDS011;59616;52.170;5.386;2023-06-01T10:10:48;13.13;;;3.97;;
70800;SDS011;59616;52.170;5.386;2023-06-01T10:13:16;13.52;;;3.60;;
70800;SDS011;59616;52.170;5.386;2023-06-01T10:15:43;11.27;;;3.10;;
70800;SDS011;59616;52.170;5.386;2023-06-01T10:18:10;12.95;;;3.90;;
70800;SDS011;59616;52.170;5.386;2023-06-01T10:20:38;9.77;;;3.50;;
70800;SDS011;59616;52.170;5.386;2023-06-01T10:23:05;12.50;;;3.30;;
70800;SDS011;59616;52.170;5.386;2023-06-01T10:25:46;14.93;;;3.97;;
70800;SDS011;59616;52.170;5.386;2023-06-01T10:28:14;11.43;;;4.00;;
70800;SDS011;59616;52.170;5.386;2023-06-01T10:30:41;13.32;;;3.83;;
70800;SDS011;59616;52.170;5.386;2023-06-01T10:33:09;12.23;;;3.88;;
70800;SDS011;59616;52.170;5.386;2023-06-01T10:40:42;12.90;;;3.55;;
70800;SDS011;59616;52.170;5.386;2023-06-01T10:43:56;11.82;;;3.20;;
70800;SDS011;59616;52.170;5.386;2023-06-01T10:46:33;8.88;;;2.85;;
70800;SDS011;59616;52.170;5.386;2023-06-01T10:48:55;10.82;;;2.63;;
70800;SDS011;59616;52.170;5.386;2023-06-01T10:51:23;11.18;;;2.70;;
70800;SDS011;59616;52.170;5.386;2023-06-01T10:53:51;8.68;;;2.58;;
70800;SDS011;59616;52.170;5.386;2023-06-01T10:56:25;11.35;;;3.83;;
70800;SDS011;59616;52.170;5.386;2023-06-01T11:04:06;9.18;;;2.83;;
70800;SDS011;59616;52.170;5.386;2023-06-01T11:06:34;10.43;;;2.60;;
70800;SDS011;59616;52.170;5.386;2023-06-01T11:09:04;9.13;;;2.60;;
70800;SDS011;59616;52.170;5.386;2023-06-01T11:14:15;10.25;;;2.75;;
70800;SDS011;59616;52.170;5.386;2023-06-01T11:16:43;8.57;;;2.38;;
70800;SDS011;59616;52.170;5.386;2023-06-01T11:19:16;11.13;;;2.70;;
70800;SDS011;59616;52.170;5.386;2023-06-01T11:21:44;7.75;;;1.95;;
70800;SDS011;59616;52.170;5.386;2023-06-01T11:24:12;11.45;;;2.50;;
70800;SDS011;59616;52.170;5.386;2023-06-01T11:26:41;10.40;;;2.40;;
70800;SDS011;59616;52.170;5.386;2023-06-01T11:29:20;9.18;;;2.70;;
70800;SDS011;59616;52.170;5.386;2023-06-01T11:31:49;10.10;;;2.90;;
70800;SDS011;59616;52.170;5.386;2023-06-01T11:34:18;9.25;;;2.50;;
70800;SDS011;59616;52.170;5.386;2023-06-01T11:36:47;10.40;;;2.85;;
70800;SDS011;59616;52.170;5.386;2023-06-01T11:39:18;10.60;;;2.35;;
70800;SDS011;59616;52.170;5.386;2023-06-01T11:41:49;7.65;;;2.30;;
70800;SDS011;59616;52.170;5.386;2023-06-01T11:44:17;8.35;;;2.78;;
70800;SDS011;59616;52.170;5.386;2023-06-01T11:46:51;11.68;;;2.85;;
70800;SDS011;59616;52.170;5.386;2023-06-01T11:49:19;7.15;;;2.55;;
70800;SDS011;59616;52.170;5.386;2023-06-01T11:51:46;11.48;;;2.47;;
70800;SDS011;59616;52.170;5.386;2023-06-01T11:54:14;8.63;;;2.60;;
70800;SDS011;59616;52.170;5.386;2023-06-01T11:56:41;9.35;;;2.40;;
70800;SDS011;59616;52.170;5.386;2023-06-01T11:59:08;7.75;;;2.40;;
70800;SDS011;59616;52.170;5.386;2023-06-01T12:01:37;10.52;;;2.53;;
70800;SDS011;59616;52.170;5.386;2023-06-01T12:04:15;7.40;;;2.90;;
70800;SDS011;59616;52.170;5.386;2023-06-01T12:06:43;9.23;;;2.50;;
70800;SDS011;59616;52.170;5.386;2023-06-01T12:09:11;6.38;;;2.15;;
70800;SDS011;59616;52.170;5.386;2023-06-01T12:11:39;10.48;;;2.83;;
70800;SDS011;59616;52.170;5.386;2023-06-01T12:14:09;8.32;;;2.38;;
70800;SDS011;59616;52.170;5.386;2023-06-01T12:16:52;7.68;;;2.50;;
70800;SDS011;59616;52.170;5.386;2023-06-01T12:19:20;7.30;;;2.50;;
70800;SDS011;59616;52.170;5.386;2023-06-01T12:21:48;8.18;;;2.45;;
70800;SDS011;59616;52.170;5.386;2023-06-01T12:24:26;8.50;;;2.45;;
70800;SDS011;59616;52.170;5.386;2023-06-01T12:27:00;9.00;;;2.58;;
70800;SDS011;59616;52.170;5.386;2023-06-01T12:29:40;9.43;;;2.85;;
70800;SDS011;59616;52.170;5.386;2023-06-01T12:32:08;8.07;;;2.42;;
70800;SDS011;59616;52.170;5.386;2023-06-01T12:34:36;11.50;;;3.20;;
70800;SDS011;59616;52.170;5.386;2023-06-01T12:37:13;9.93;;;2.75;;
70800;SDS011;59616;52.170;5.386;2023-06-01T12:39:41;10.93;;;2.60;;
70800;SDS011;59616;52.170;5.386;2023-06-01T12:42:09;10.35;;;2.92;;
70800;SDS011;59616;52.170;5.386;2023-06-01T12:44:38;11.63;;;2.80;;
70800;SDS011;59616;52.170;5.386;2023-06-01T12:47:08;10.52;;;2.30;;
70800;SDS011;59616;52.170;5.386;2023-06-01T12:49:35;8.75;;;2.50;;
70800;SDS011;59616;52.170;5.386;2023-06-01T12:52:04;9.05;;;2.55;;
70800;SDS011;59616;52.170;5.386;2023-06-01T12:54:31;9.00;;;2.50;;
70800;SDS011;59616;52.170;5.386;2023-06-01T12:56:58;7.72;;;2.42;;
70800;SDS011;59616;52.170;5.386;2023-06-01T12:59:26;9.15;;;2.50;;
70800;SDS011;59616;52.170;5.386;2023-06-01T13:01:53;9.10;;;2.17;;
70800;SDS011;59616;52.170;5.386;2023-06-01T13:04:20;7.75;;;2.00;;
70800;SDS011;59616;52.170;5.386;2023-06-01T13:06:49;7.63;;;2.30;;
70800;SDS011;59616;52.170;5.386;2023-06-01T13:09:17;6.90;;;2.25;;
70800;SDS011;59616;52.170;5.386;2023-06-01T13:11:44;7.15;;;2.38;;
70800;SDS011;59616;52.170;5.386;2023-06-01T13:14:11;7.85;;;2.22;;
70800;SDS011;59616;52.170;5.386;2023-06-01T13:16:39;7.35;;;2.20;;
70800;SDS011;59616;52.170;5.386;2023-06-01T13:19:06;8.57;;;2.10;;
70800;SDS011;59616;52.170;5.386;2023-06-01T13:21:34;6.45;;;2.13;;
70800;SDS011;59616;52.170;5.386;2023-06-01T13:24:02;7.82;;;2.17;;
70800;SDS011;59616;52.170;5.386;2023-06-01T13:26:29;11.80;;;2.40;;
70800;SDS011;59616;52.170;5.386;2023-06-01T13:28:57;7.28;;;1.85;;
70800;SDS011;59616;52.170;5.386;2023-06-01T13:31:24;6.78;;;2.17;;
70800;SDS011;59616;52.170;5.386;2023-06-01T13:33:51;7.53;;;2.03;;
70800;SDS011;59616;52.170;5.386;2023-06-01T13:36:19;5.80;;;1.67;;
70800;SDS011;59616;52.170;5.386;2023-06-01T13:38:46;6.80;;;2.00;;
70800;SDS011;59616;52.170;5.386;2023-06-01T13:41:13;5.78;;;1.90;;
70800;SDS011;59616;52.170;5.386;2023-06-01T13:43:41;5.40;;;1.77;;
70800;SDS011;59616;52.170;5.386;2023-06-01T13:46:08;7.75;;;1.90;;
70800;SDS011;59616;52.170;5.386;2023-06-01T13:48:36;5.45;;;1.65;;
70800;SDS011;59616;52.170;5.386;2023-06-01T13:51:04;5.65;;;1.70;;
70800;SDS011;59616;52.170;5.386;2023-06-01T13:53:32;5.00;;;1.80;;
70800;SDS011;59616;52.170;5.386;2023-06-01T13:55:59;5.18;;;1.60;;
70800;SDS011;59616;52.170;5.386;2023-06-01T13:58:28;4.72;;;1.58;;
70800;SDS011;59616;52.170;5.386;2023-06-01T14:00:56;5.38;;;1.88;;
70800;SDS011;59616;52.170;5.386;2023-06-01T14:03:23;4.90;;;1.80;;
70800;SDS011;59616;52.170;5.386;2023-06-01T14:05:50;4.72;;;1.60;;
70800;SDS011;59616;52.170;5.386;2023-06-01T14:10:50;4.20;;;1.40;;
70800;SDS011;59616;52.170;5.386;2023-06-01T14:13:17;6.20;;;1.50;;
70800;SDS011;59616;52.170;5.386;2023-06-01T14:15:44;5.07;;;1.40;;
70800;SDS011;59616;52.170;5.386;2023-06-01T14:18:12;5.80;;;1.45;;
70800;SDS011;59616;52.170;5.386;2023-06-01T14:20:39;4.30;;;1.50;;
70800;SDS011;59616;52.170;5.386;2023-06-01T14:23:06;3.65;;;1.20;;
70800;SDS011;59616;52.170;5.386;2023-06-01T14:25:35;4.85;;;1.52;;
70800;SDS011;59616;52.170;5.386;2023-06-01T14:28:02;6.85;;;1.70;;
70800;SDS011;59616;52.170;5.386;2023-06-01T14:30:30;6.28;;;1.75;;
70800;SDS011;59616;52.170;5.386;2023-06-01T14:32:58;5.80;;;1.60;;
70800;SDS011;59616;52.170;5.386;2023-06-01T14:35:25;4.40;;;1.50;;
70800;SDS011;59616;52.170;5.386;2023-06-01T14:37:53;5.07;;;1.67;;
70800;SDS011;59616;52.170;5.386;2023-06-01T14:40:21;4.38;;;1.30;;
70800;SDS011;59616;52.170;5.386;2023-06-01T14:42:49;5.30;;;1.67;;
70800;SDS011;59616;52.170;5.386;2023-06-01T14:45:16;6.43;;;2.30;;
70800;SDS011;59616;52.170;5.386;2023-06-01T14:47:45;7.13;;;1.65;;
70800;SDS011;59616;52.170;5.386;2023-06-01T14:50:13;4.88;;;1.70;;
70800;SDS011;59616;52.170;5.386;2023-06-01T14:52:40;4.32;;;1.63;;
70800;SDS011;59616;52.170;5.386;2023-06-01T14:55:08;8.50;;;1.83;;
70800;SDS011;59616;52.170;5.386;2023-06-01T14:57:38;4.68;;;1.80;;
70800;SDS011;59616;52.170;5.386;2023-06-01T15:00:05;4.28;;;1.52;;
70800;SDS011;59616;52.170;5.386;2023-06-01T15:02:33;4.55;;;1.55;;
70800;SDS011;59616;52.170;5.386;2023-06-01T15:05:00;4.88;;;1.70;;
70800;SDS011;59616;52.170;5.386;2023-06-01T15:07:28;6.00;;;1.70;;
70800;SDS011;59616;52.170;5.386;2023-06-01T15:09:55;5.25;;;1.50;;
70800;SDS011;59616;52.170;5.386;2023-06-01T15:12:22;5.93;;;1.80;;
70800;SDS011;59616;52.170;5.386;2023-06-01T15:14:49;7.07;;;1.88;;
70800;SDS011;59616;52.170;5.386;2023-06-01T15:17:17;5.28;;;1.70;;
70800;SDS011;59616;52.170;5.386;2023-06-01T15:19:45;4.88;;;1.50;;
70800;SDS011;59616;52.170;5.386;2023-06-01T15:22:13;3.70;;;1.60;;